sensor_id;sensor_type;location;lat;lon;timestamp;pressure;altitude;pressure_sealevel;temperature;humidity
55271;BME280;41132;47.162;9.470;2023-03-31T00:01:25;96198.59;;;8.80;100.00
55271;BME280;41132;47.162;9.470;2023-03-31T00:03:51;96193.00;;;8.75;100.00
55271;BME280;41132;47.162;9.470;2023-03-31T00:06:26;96174.81;;;8.73;100.00
55271;BME280;41132;47.162;9.470;2023-03-31T00:08:52;96169.69;;;8.90;100.00
55271;BME280;41132;47.162;9.470;2023-03-31T00:11:19;96170.78;;;8.79;100.00
55271;BME280;41132;47.162;9.470;2023-03-31T00:13:45;96171.97;;;8.85;100.00
55271;BME280;41132;47.162;9.470;2023-03-31T00:16:10;96168.38;;;8.86;100.00
55271;BME280;41132;47.162;9.470;2023-03-31T00:18:36;96162.88;;;8.71;100.00
55271;BME280;41132;47.162;9.470;2023-03-31T00:21:13;96159.72;;;8.67;100.00
55271;BME280;41132;47.162;9.470;2023-03-31T00:23:48;96158.31;;;8.55;100.00
55271;BME280;41132;47.162;9.470;2023-03-31T00:26:14;96152.34;;;8.45;100.00
55271;BME280;41132;47.162;9.470;2023-03-31T00:28:39;96154.00;;;8.64;100.00
55271;BME280;41132;47.162;9.470;2023-03-31T00:31:05;96148.41;;;8.59;100.00
55271;BME280;41132;47.162;9.470;2023-03-31T00:33:30;96146.88;;;8.56;100.00
55271;BME280;41132;47.162;9.470;2023-03-31T00:35:56;96152.88;;;8.48;100.00
55271;BME280;41132;47.162;9.470;2023-03-31T00:38:26;96148.19;;;8.52;100.00
55271;BME280;41132;47.162;9.470;2023-03-31T00:40:53;96127.31;;;8.42;100.00
55271;BME280;41132;47.162;9.470;2023-03-31T00:43:29;96137.03;;;8.32;100.00
55271;BME280;41132;47.162;9.470;2023-03-31T00:46:05;96124.31;;;8.19;100.00
55271;BME280;41132;47.162;9.470;2023-03-31T00:48:32;96135.09;;;8.34;100.00
55271;BME280;41132;47.162;9.470;2023-03-31T00:51:03;96129.03;;;8.33;100.00
55271;BME280;41132;47.162;9.470;2023-03-31T00:53:30;96126.88;;;8.47;100.00
55271;BME280;41132;47.162;9.470;2023-03-31T00:56:01;96121.09;;;8.61;100.00
55271;BME280;41132;47.162;9.470;2023-03-31T00:58:29;96119.09;;;8.55;100.00
55271;BME280;41132;47.162;9.470;2023-03-31T01:00:59;96109.53;;;8.46;100.00
55271;BME280;41132;47.162;9.470;2023-03-31T01:03:27;96110.34;;;8.46;100.00
55271;BME280;41132;47.162;9.470;2023-03-31T01:05:56;96112.69;;;8.31;100.00
55271;BME280;41132;47.162;9.470;2023-03-31T01:08:25;96115.22;;;8.41;100.00
55271;BME280;41132;47.162;9.470;2023-03-31T01:10:57;96112.31;;;8.44;100.00
55271;BME280;41132;47.162;9.470;2023-03-31T01:13:25;96100.63;;;8.56;100.00
55271;BME280;41132;47.162;9.470;2023-03-31T01:15:52;96108.25;;;8.68;100.00
55271;BME280;41132;47.162;9.470;2023-03-31T01:18:18;96108.19;;;8.86;100.00
55271;BME280;41132;47.162;9.470;2023-03-31T01:24:14;96094.19;;;8.95;100.00
55271;BME280;41132;47.162;9.470;2023-03-31T01:48:36;96043.59;;;8.94;100.00
55271;BME280;41132;47.162;9.470;2023-03-31T01:51:14;96043.06;;;8.83;100.00
55271;BME280;41132;47.162;9.470;2023-03-31T01:56:17;96026.59;;;8.90;100.00
55271;BME280;41132;47.162;9.470;2023-03-31T01:58:56;96018.09;;;8.88;100.00
55271;BME280;41132;47.162;9.470;2023-03-31T02:01:35;96018.28;;;9.03;100.00
55271;BME280;41132;47.162;9.470;2023-03-31T02:04:08;96011.09;;;8.97;100.00
55271;BME280;41132;47.162;9.470;2023-03-31T02:06:42;96004.34;;;8.86;100.00
55271;BME280;41132;47.162;9.470;2023-03-31T02:09:19;96008.47;;;8.97;100.00
55271;BME280;41132;47.162;9.470;2023-03-31T02:11:47;96012.56;;;8.99;100.00
55271;BME280;41132;47.162;9.470;2023-03-31T02:14:18;96008.28;;;8.98;100.00
55271;BME280;41132;47.162;9.470;2023-03-31T02:16:48;95992.06;;;8.87;100.00
55271;BME280;41132;47.162;9.470;2023-03-31T02:19:16;95987.06;;;9.02;100.00
55271;BME280;41132;47.162;9.470;2023-03-31T02:21:45;95991.41;;;8.85;100.00
55271;BME280;41132;47.162;9.470;2023-03-31T02:24:13;95994.81;;;8.85;100.00
55271;BME280;41132;47.162;9.470;2023-03-31T02:27:07;95989.31;;;8.96;100.00
55271;BME280;41132;47.162;9.470;2023-03-31T02:29:34;95992.88;;;8.87;100.00
55271;BME280;41132;47.162;9.470;2023-03-31T02:32:12;95997.50;;;8.93;100.00
55271;BME280;41132;47.162;9.470;2023-03-31T02:34:39;95998.50;;;9.01;100.00
55271;BME280;41132;47.162;9.470;2023-03-31T02:37:04;95994.25;;;9.08;100.00
55271;BME280;41132;47.162;9.470;2023-03-31T02:39:33;95993.97;;;9.11;100.00
55271;BME280;41132;47.162;9.470;2023-03-31T02:42:01;95982.66;;;9.10;100.00
55271;BME280;41132;47.162;9.470;2023-03-31T02:44:33;95993.59;;;9.06;100.00
55271;BME280;41132;47.162;9.470;2023-03-31T02:46:58;95990.28;;;8.95;100.00
55271;BME280;41132;47.162;9.470;2023-03-31T02:49:24;95984.22;;;8.87;100.00
55271;BME280;41132;47.162;9.470;2023-03-31T02:57:16;95972.28;;;8.92;100.00
55271;BME280;41132;47.162;9.470;2023-03-31T03:05:24;95964.78;;;9.06;100.00
55271;BME280;41132;47.162;9.470;2023-03-31T03:08:13;95958.38;;;8.92;100.00
55271;BME280;41132;47.162;9.470;2023-03-31T03:11:13;95964.56;;;8.83;100.00
55271;BME280;41132;47.162;9.470;2023-03-31T03:16:31;95951.81;;;8.88;100.00
55271;BME280;41132;47.162;9.470;2023-03-31T03:18:59;95945.91;;;8.77;100.00
55271;BME280;41132;47.162;9.470;2023-03-31T03:21:25;95934.72;;;8.67;100.00
55271;BME280;41132;47.162;9.470;2023-03-31T03:23:51;95939.75;;;8.52;100.00
55271;BME280;41132;47.162;9.470;2023-03-31T03:26:17;95928.81;;;8.57;100.00
55271;BME280;41132;47.162;9.470;2023-03-31T03:28:46;95920.59;;;8.44;100.00
55271;BME280;41132;47.162;9.470;2023-03-31T03:31:11;95904.50;;;8.39;100.00
55271;BME280;41132;47.162;9.470;2023-03-31T03:33:37;95907.56;;;8.52;100.00
55271;BME280;41132;47.162;9.470;2023-03-31T03:36:03;95903.28;;;8.51;100.00
55271;BME280;41132;47.162;9.470;2023-03-31T03:38:29;95882.59;;;8.31;100.00
55271;BME280;41132;47.162;9.470;2023-03-31T03:40:54;95894.28;;;8.45;100.00
55271;BME280;41132;47.162;9.470;2023-03-31T03:43:19;95881.69;;;8.41;100.00
55271;BME280;41132;47.162;9.470;2023-03-31T03:45:49;95882.06;;;8.54;100.00
55271;BME280;41132;47.162;9.470;2023-03-31T03:48:15;95864.75;;;8.69;100.00
55271;BME280;41132;47.162;9.470;2023-03-31T03:50:40;95834.97;;;8.54;100.00
55271;BME280;41132;47.162;9.470;2023-03-31T03:53:06;95842.19;;;8.60;100.00
55271;BME280;41132;47.162;9.470;2023-03-31T03:55:32;95855.47;;;8.83;100.00
55271;BME280;41132;47.162;9.470;2023-03-31T03:57:58;95853.03;;;8.82;100.00
55271;BME280;41132;47.162;9.470;2023-03-31T04:00:24;95856.47;;;8.82;100.00
55271;BME280;41132;47.162;9.470;2023-03-31T04:02:49;95847.47;;;8.85;100.00
55271;BME280;41132;47.162;9.470;2023-03-31T04:05:15;95817.84;;;8.76;100.00
55271;BME280;41132;47.162;9.470;2023-03-31T04:07:40;95832.09;;;8.82;100.00
55271;BME280;41132;47.162;9.470;2023-03-31T04:10:06;95827.16;;;8.78;100.00
55271;BME280;41132;47.162;9.470;2023-03-31T04:12:35;95804.31;;;8.89;100.00
55271;BME280;41132;47.162;9.470;2023-03-31T04:15:01;95783.84;;;8.84;100.00
55271;BME280;41132;47.162;9.470;2023-03-31T04:17:26;95779.09;;;8.80;100.00
55271;BME280;41132;47.162;9.470;2023-03-31T04:20:04;95771.44;;;8.86;100.00
55271;BME280;41132;47.162;9.470;2023-03-31T04:22:32;95772.25;;;8.87;100.00
55271;BME280;41132;47.162;9.470;2023-03-31T04:25:06;95762.28;;;8.90;100.00
55271;BME280;41132;47.162;9.470;2023-03-31T04:27:39;95752.78;;;8.97;100.00
55271;BME280;41132;47.162;9.470;2023-03-31T04:30:12;95744.44;;;8.94;100.00
55271;BME280;41132;47.162;9.470;2023-03-31T04:32:37;95727.75;;;8.70;100.00
55271;BME280;41132;47.162;9.470;2023-03-31T04:35:03;95719.56;;;8.90;100.00
55271;BME280;41132;47.162;9.470;2023-03-31T04:37:29;95713.53;;;8.81;100.00
55271;BME280;41132;47.162;9.470;2023-03-31T04:40:01;95712.22;;;9.02;100.00
55271;BME280;41132;47.162;9.470;2023-03-31T04:42:33;95694.06;;;9.00;100.00
55271;BME280;41132;47.162;9.470;2023-03-31T04:44:58;95704.38;;;9.02;100.00
55271;BME280;41132;47.162;9.470;2023-03-31T04:47:24;95688.00;;;8.83;100.00
55271;BME280;41132;47.162;9.470;2023-03-31T04:49:49;95674.13;;;8.83;100.00
55271;BME280;41132;47.162;9.470;2023-03-31T04:52:14;95662.50;;;8.69;100.00
55271;BME280;41132;47.162;9.470;2023-03-31T04:54:40;95664.16;;;8.78;100.00
55271;BME280;41132;47.162;9.470;2023-03-31T04:57:05;95676.06;;;8.81;100.00
55271;BME280;41132;47.162;9.470;2023-03-31T04:59:30;95660.72;;;8.86;100.00
55271;BME280;41132;47.162;9.470;2023-03-31T05:01:56;95648.28;;;8.80;100.00
55271;BME280;41132;47.162;9.470;2023-03-31T05:04:21;95634.22;;;8.64;100.00
55271;BME280;41132;47.162;9.470;2023-03-31T05:06:47;95617.69;;;8.72;100.00
55271;BME280;41132;47.162;9.470;2023-03-31T05:09:12;95617.69;;;8.80;100.00
55271;BME280;41132;47.162;9.470;2023-03-31T05:11:37;95610.84;;;8.63;100.00
55271;BME280;41132;47.162;9.470;2023-03-31T05:14:03;95610.84;;;8.71;100.00
55271;BME280;41132;47.162;9.470;2023-03-31T05:16:28;95616.09;;;8.54;100.00
55271;BME280;41132;47.162;9.470;2023-03-31T05:18:54;95610.22;;;8.52;100.00
55271;BME280;41132;47.162;9.470;2023-03-31T05:21:20;95625.91;;;8.77;100.00
55271;BME280;41132;47.162;9.470;2023-03-31T05:23:46;95619.63;;;8.94;100.00
55271;BME280;41132;47.162;9.470;2023-03-31T05:26:12;95602.47;;;9.00;100.00
55271;BME280;41132;47.162;9.470;2023-03-31T05:28:38;95626.31;;;9.13;100.00
55271;BME280;41132;47.162;9.470;2023-03-31T05:31:05;95592.28;;;9.13;100.00
55271;BME280;41132;47.162;9.470;2023-03-31T05:33:31;95576.06;;;9.18;100.00
55271;BME280;41132;47.162;9.470;2023-03-31T05:35:57;95549.31;;;9.93;94.35
55271;BME280;41132;47.162;9.470;2023-03-31T05:38:25;95544.09;;;10.69;81.52
55271;BME280;41132;47.162;9.470;2023-03-31T05:40:53;95551.06;;;10.62;87.97
55271;BME280;41132;47.162;9.470;2023-03-31T05:43:19;95516.06;;;10.70;82.35
55271;BME280;41132;47.162;9.470;2023-03-31T05:45:44;95497.69;;;10.99;76.62
55271;BME280;41132;47.162;9.470;2023-03-31T05:48:09;95473.38;;;11.12;79.71
55271;BME280;41132;47.162;9.470;2023-03-31T05:50:35;95493.91;;;11.23;76.63
55271;BME280;41132;47.162;9.470;2023-03-31T05:53:00;95489.22;;;11.19;76.60
55271;BME280;41132;47.162;9.470;2023-03-31T05:55:25;95478.78;;;11.40;73.71
55271;BME280;41132;47.162;9.470;2023-03-31T05:57:51;95478.22;;;11.45;73.28
55271;BME280;41132;47.162;9.470;2023-03-31T06:00:16;95475.66;;;11.52;72.97
55271;BME280;41132;47.162;9.470;2023-03-31T06:02:42;95481.22;;;11.63;71.64
55271;BME280;41132;47.162;9.470;2023-03-31T06:05:07;95473.66;;;11.75;70.05
55271;BME280;41132;47.162;9.470;2023-03-31T06:07:33;95454.69;;;11.80;66.87
55271;BME280;41132;47.162;9.470;2023-03-31T06:09:58;95453.44;;;11.76;69.03
55271;BME280;41132;47.162;9.470;2023-03-31T06:12:23;95453.66;;;11.74;69.64
55271;BME280;41132;47.162;9.470;2023-03-31T06:14:49;95434.47;;;11.80;70.78
55271;BME280;41132;47.162;9.470;2023-03-31T06:17:14;95430.78;;;11.96;68.30
55271;BME280;41132;47.162;9.470;2023-03-31T06:19:40;95435.41;;;12.16;65.37
55271;BME280;41132;47.162;9.470;2023-03-31T06:22:05;95427.69;;;12.14;67.37
55271;BME280;41132;47.162;9.470;2023-03-31T06:24:31;95416.41;;;12.20;66.86
55271;BME280;41132;47.162;9.470;2023-03-31T06:26:56;95421.16;;;12.31;63.94
55271;BME280;41132;47.162;9.470;2023-03-31T06:29:22;95399.03;;;12.26;65.73
55271;BME280;41132;47.162;9.470;2023-03-31T06:31:48;95409.94;;;12.58;62.18
55271;BME280;41132;47.162;9.470;2023-03-31T06:34:13;95408.59;;;12.68;62.15
55271;BME280;41132;47.162;9.470;2023-03-31T06:36:39;95417.84;;;12.58;62.53
55271;BME280;41132;47.162;9.470;2023-03-31T06:39:04;95436.66;;;12.54;63.14
55271;BME280;41132;47.162;9.470;2023-03-31T06:41:29;95425.69;;;12.51;63.45
55271;BME280;41132;47.162;9.470;2023-03-31T06:43:55;95463.56;;;12.50;64.78
55271;BME280;41132;47.162;9.470;2023-03-31T06:46:20;95453.88;;;12.57;62.53
55271;BME280;41132;47.162;9.470;2023-03-31T06:48:46;95441.25;;;12.74;61.29
55271;BME280;41132;47.162;9.470;2023-03-31T06:51:11;95445.03;;;12.71;62.86
55271;BME280;41132;47.162;9.470;2023-03-31T06:53:37;95457.03;;;12.74;61.50
55271;BME280;41132;47.162;9.470;2023-03-31T06:56:03;95472.69;;;12.89;59.84
55271;BME280;41132;47.162;9.470;2023-03-31T06:58:30;95469.09;;;13.03;58.35
55271;BME280;41132;47.162;9.470;2023-03-31T07:00:55;95468.81;;;13.26;57.17
55271;BME280;41132;47.162;9.470;2023-03-31T07:03:20;95464.91;;;13.15;59.96
55271;BME280;41132;47.162;9.470;2023-03-31T07:05:48;95470.13;;;13.02;59.94
55271;BME280;41132;47.162;9.470;2023-03-31T07:08:14;95481.09;;;13.06;61.01
55271;BME280;41132;47.162;9.470;2023-03-31T07:10:42;95465.88;;;13.08;60.85
55271;BME280;41132;47.162;9.470;2023-03-31T07:13:10;95466.88;;;13.00;61.57
55271;BME280;41132;47.162;9.470;2023-03-31T07:15:36;95457.78;;;13.09;59.71
55271;BME280;41132;47.162;9.470;2023-03-31T07:18:01;95453.34;;;13.16;60.20
55271;BME280;41132;47.162;9.470;2023-03-31T07:20:28;95462.69;;;13.19;62.44
55271;BME280;41132;47.162;9.470;2023-03-31T07:22:54;95449.81;;;13.44;60.63
55271;BME280;41132;47.162;9.470;2023-03-31T07:25:19;95425.53;;;13.62;58.44
55271;BME280;41132;47.162;9.470;2023-03-31T07:27:45;95415.38;;;13.46;59.30
55271;BME280;41132;47.162;9.470;2023-03-31T07:30:14;95423.06;;;13.34;60.19
55271;BME280;41132;47.162;9.470;2023-03-31T07:32:40;95417.00;;;13.53;57.32
55271;BME280;41132;47.162;9.470;2023-03-31T07:35:06;95417.00;;;13.53;60.42
55271;BME280;41132;47.162;9.470;2023-03-31T07:37:39;95426.16;;;13.64;58.80
55271;BME280;41132;47.162;9.470;2023-03-31T07:40:06;95433.44;;;13.69;60.72
55271;BME280;41132;47.162;9.470;2023-03-31T07:42:33;95418.81;;;13.53;61.60
55271;BME280;41132;47.162;9.470;2023-03-31T07:44:58;95419.44;;;13.62;61.38
55271;BME280;41132;47.162;9.470;2023-03-31T07:47:24;95443.22;;;13.82;58.48
55271;BME280;41132;47.162;9.470;2023-03-31T07:49:50;95445.63;;;13.96;57.56
55271;BME280;41132;47.162;9.470;2023-03-31T07:52:15;95430.84;;;13.82;58.33
55271;BME280;41132;47.162;9.470;2023-03-31T07:54:42;95473.06;;;14.09;56.24
55271;BME280;41132;47.162;9.470;2023-03-31T07:57:08;95490.88;;;13.80;57.29
55271;BME280;41132;47.162;9.470;2023-03-31T07:59:34;95524.13;;;13.68;58.77
55271;BME280;41132;47.162;9.470;2023-03-31T08:01:59;95571.97;;;13.58;58.83
55271;BME280;41132;47.162;9.470;2023-03-31T08:04:25;95633.59;;;13.57;62.74
55271;BME280;41132;47.162;9.470;2023-03-31T08:06:50;95632.09;;;13.13;74.32
55271;BME280;41132;47.162;9.470;2023-03-31T08:09:16;95601.63;;;12.75;85.33
55271;BME280;41132;47.162;9.470;2023-03-31T08:11:42;95595.69;;;12.67;94.72
55271;BME280;41132;47.162;9.470;2023-03-31T08:14:07;95593.63;;;12.19;100.00
55271;BME280;41132;47.162;9.470;2023-03-31T08:16:32;95617.94;;;12.21;100.00
55271;BME280;41132;47.162;9.470;2023-03-31T08:18:58;95648.38;;;12.09;100.00
55271;BME280;41132;47.162;9.470;2023-03-31T08:21:23;95622.81;;;12.03;100.00
55271;BME280;41132;47.162;9.470;2023-03-31T08:23:48;95597.22;;;11.90;100.00
55271;BME280;41132;47.162;9.470;2023-03-31T08:26:17;95617.72;;;12.01;100.00
55271;BME280;41132;47.162;9.470;2023-03-31T08:28:43;95605.16;;;11.82;100.00
55271;BME280;41132;47.162;9.470;2023-03-31T08:31:09;95615.06;;;11.80;100.00
55271;BME280;41132;47.162;9.470;2023-03-31T08:33:35;95601.03;;;11.58;100.00
55271;BME280;41132;47.162;9.470;2023-03-31T08:36:06;95595.13;;;11.56;100.00
55271;BME280;41132;47.162;9.470;2023-03-31T08:38:37;95603.31;;;11.46;100.00
55271;BME280;41132;47.162;9.470;2023-03-31T08:41:05;95588.19;;;11.33;100.00
55271;BME280;41132;47.162;9.470;2023-03-31T08:43:35;95583.84;;;11.25;100.00
55271;BME280;41132;47.162;9.470;2023-03-31T08:46:05;95591.81;;;11.02;100.00
55271;BME280;41132;47.162;9.470;2023-03-31T08:48:40;95626.88;;;11.10;100.00
55271;BME280;41132;47.162;9.470;2023-03-31T08:51:20;95607.22;;;11.05;100.00
55271;BME280;41132;47.162;9.470;2023-03-31T08:53:58;95628.91;;;10.84;100.00
55271;BME280;41132;47.162;9.470;2023-03-31T08:56:25;95623.13;;;10.89;100.00
55271;BME280;41132;47.162;9.470;2023-03-31T08:58:51;95637.97;;;10.97;100.00
55271;BME280;41132;47.162;9.470;2023-03-31T09:10:06;95649.81;;;10.78;100.00
55271;BME280;41132;47.162;9.470;2023-03-31T09:15:27;95656.53;;;10.57;100.00
55271;BME280;41132;47.162;9.470;2023-03-31T09:17:54;95683.59;;;10.58;100.00
55271;BME280;41132;47.162;9.470;2023-03-31T09:20:25;95674.25;;;10.55;100.00
55271;BME280;41132;47.162;9.470;2023-03-31T09:25:46;95700.22;;;10.19;100.00
55271;BME280;41132;47.162;9.470;2023-03-31T09:28:20;95668.28;;;10.15;100.00
55271;BME280;41132;47.162;9.470;2023-03-31T09:30:48;95655.88;;;10.09;100.00
55271;BME280;41132;47.162;9.470;2023-03-31T09:33:27;95646.31;;;9.85;100.00
55271;BME280;41132;47.162;9.470;2023-03-31T09:35:57;95635.56;;;9.72;100.00
55271;BME280;41132;47.162;9.470;2023-03-31T09:38:22;95640.34;;;9.68;100.00
55271;BME280;41132;47.162;9.470;2023-03-31T09:40:48;95589.88;;;9.43;100.00
55271;BME280;41132;47.162;9.470;2023-03-31T09:43:26;95583.81;;;9.43;100.00
55271;BME280;41132;47.162;9.470;2023-03-31T09:45:53;95543.44;;;9.29;100.00
55271;BME280;41132;47.162;9.470;2023-03-31T09:48:31;95544.94;;;9.31;100.00
55271;BME280;41132;47.162;9.470;2023-03-31T09:51:07;95570.09;;;9.40;100.00
55271;BME280;41132;47.162;9.470;2023-03-31T09:53:43;95559.91;;;9.46;100.00
55271;BME280;41132;47.162;9.470;2023-03-31T09:56:10;95556.63;;;9.44;100.00
55271;BME280;41132;47.162;9.470;2023-03-31T09:59:00;95587.38;;;9.50;100.00
55271;BME280;41132;47.162;9.470;2023-03-31T10:01:26;95586.75;;;9.48;100.00
55271;BME280;41132;47.162;9.470;2023-03-31T10:03:54;95592.94;;;9.55;100.00
55271;BME280;41132;47.162;9.470;2023-03-31T10:06:22;95552.13;;;9.60;100.00
55271;BME280;41132;47.162;9.470;2023-03-31T10:08:54;95559.41;;;9.73;100.00
55271;BME280;41132;47.162;9.470;2023-03-31T10:11:22;95540.72;;;9.76;100.00
55271;BME280;41132;47.162;9.470;2023-03-31T10:13:52;95541.69;;;9.83;100.00
55271;BME280;41132;47.162;9.470;2023-03-31T10:17:15;95535.72;;;9.90;100.00
55271;BME280;41132;47.162;9.470;2023-03-31T10:19:35;95534.03;;;9.97;100.00
55271;BME280;41132;47.162;9.470;2023-03-31T10:22:14;95510.78;;;9.94;100.00
55271;BME280;41132;47.162;9.470;2023-03-31T10:24:42;95524.53;;;9.73;100.00
55271;BME280;41132;47.162;9.470;2023-03-31T10:29:42;95543.56;;;9.67;100.00
55271;BME280;41132;47.162;9.470;2023-03-31T10:32:17;95581.41;;;9.64;100.00
55271;BME280;41132;47.162;9.470;2023-03-31T10:34:43;95619.41;;;9.60;100.00
55271;BME280;41132;47.162;9.470;2023-03-31T10:37:27;95641.19;;;9.60;100.00
55271;BME280;41132;47.162;9.470;2023-03-31T10:40:02;95598.16;;;9.55;100.00
55271;BME280;41132;47.162;9.470;2023-03-31T10:42:33;95572.91;;;9.62;100.00
55271;BME280;41132;47.162;9.470;2023-03-31T10:47:48;95579.66;;;9.56;100.00
55271;BME280;41132;47.162;9.470;2023-03-31T10:50:16;95574.44;;;9.56;100.00
55271;BME280;41132;47.162;9.470;2023-03-31T10:52:47;95574.59;;;9.55;100.00
55271;BME280;41132;47.162;9.470;2023-03-31T10:55:21;95556.78;;;9.50;100.00
55271;BME280;41132;47.162;9.470;2023-03-31T10:57:52;95572.63;;;9.57;100.00
55271;BME280;41132;47.162;9.470;2023-03-31T11:06:21;95497.16;;;9.29;100.00
55271;BME280;41132;47.162;9.470;2023-03-31T11:09:02;95510.31;;;9.44;100.00
55271;BME280;41132;47.162;9.470;2023-03-31T11:11:37;95468.75;;;9.41;100.00
55271;BME280;41132;47.162;9.470;2023-03-31T11:17:02;95525.75;;;9.31;100.00
55271;BME280;41132;47.162;9.470;2023-03-31T11:23:24;95492.56;;;9.31;100.00
55271;BME280;41132;47.162;9.470;2023-03-31T11:31:08;95537.44;;;9.51;100.00
55271;BME280;41132;47.162;9.470;2023-03-31T11:41:20;95493.38;;;9.78;100.00
55271;BME280;41132;47.162;9.470;2023-03-31T11:43:53;95459.91;;;9.88;100.00
55271;BME280;41132;47.162;9.470;2023-03-31T11:46:26;95418.41;;;9.92;100.00
55271;BME280;41132;47.162;9.470;2023-03-31T11:49:07;95409.69;;;9.99;100.00
55271;BME280;41132;47.162;9.470;2023-03-31T11:54:52;95412.56;;;10.19;100.00
55271;BME280;41132;47.162;9.470;2023-03-31T11:59:54;95413.97;;;10.30;100.00
55271;BME280;41132;47.162;9.470;2023-03-31T12:05:26;95440.56;;;10.42;100.00
55271;BME280;41132;47.162;9.470;2023-03-31T12:10:35;95455.34;;;10.43;100.00
55271;BME280;41132;47.162;9.470;2023-03-31T12:13:04;95442.47;;;10.48;100.00
55271;BME280;41132;47.162;9.470;2023-03-31T12:15:40;95411.47;;;10.52;100.00
55271;BME280;41132;47.162;9.470;2023-03-31T12:18:12;95403.13;;;10.48;100.00
55271;BME280;41132;47.162;9.470;2023-03-31T12:20:44;95379.22;;;10.58;100.00
55271;BME280;41132;47.162;9.470;2023-03-31T12:23:22;95385.81;;;10.83;100.00
55271;BME280;41132;47.162;9.470;2023-03-31T12:25:54;95346.63;;;11.03;100.00
55271;BME280;41132;47.162;9.470;2023-03-31T12:28:22;95383.16;;;10.98;100.00
55271;BME280;41132;47.162;9.470;2023-03-31T12:30:49;95394.88;;;11.17;100.00
55271;BME280;41132;47.162;9.470;2023-03-31T12:33:27;95365.03;;;11.25;100.00
55271;BME280;41132;47.162;9.470;2023-03-31T12:39:11;95358.91;;;11.39;100.00
55271;BME280;41132;47.162;9.470;2023-03-31T12:42:09;95369.34;;;11.33;100.00
55271;BME280;41132;47.162;9.470;2023-03-31T12:45:16;95348.59;;;11.38;100.00
55271;BME280;41132;47.162;9.470;2023-03-31T12:54:34;95326.19;;;11.63;100.00
55271;BME280;41132;47.162;9.470;2023-03-31T12:59:43;95334.69;;;11.94;96.25
55271;BME280;41132;47.162;9.470;2023-03-31T13:04:35;95346.41;;;11.91;94.34
55271;BME280;41132;47.162;9.470;2023-03-31T13:07:11;95342.53;;;12.15;88.43
55271;BME280;41132;47.162;9.470;2023-03-31T13:09:39;95324.13;;;12.15;79.11
55271;BME280;41132;47.162;9.470;2023-03-31T13:12:13;95328.41;;;12.23;80.63
55271;BME280;41132;47.162;9.470;2023-03-31T13:14:42;95327.66;;;12.36;73.18
55271;BME280;41132;47.162;9.470;2023-03-31T13:17:25;95346.13;;;12.49;73.07
55271;BME280;41132;47.162;9.470;2023-03-31T13:19:52;95342.56;;;12.63;72.72
55271;BME280;41132;47.162;9.470;2023-03-31T13:22:33;95335.28;;;12.65;75.03
55271;BME280;41132;47.162;9.470;2023-03-31T13:28:10;95327.19;;;12.73;79.50
55271;BME280;41132;47.162;9.470;2023-03-31T13:35:38;95355.13;;;12.68;77.73
55271;BME280;41132;47.162;9.470;2023-03-31T13:41:02;95382.06;;;12.28;89.20
55271;BME280;41132;47.162;9.470;2023-03-31T13:43:42;95414.25;;;12.02;99.28
55271;BME280;41132;47.162;9.470;2023-03-31T14:08:07;95368.88;;;11.94;90.84
55271;BME280;41132;47.162;9.470;2023-03-31T14:10:37;95376.25;;;12.05;85.27
55271;BME280;41132;47.162;9.470;2023-03-31T14:13:10;95411.06;;;12.07;88.97
55271;BME280;41132;47.162;9.470;2023-03-31T14:15:49;95457.88;;;11.75;97.31
55271;BME280;41132;47.162;9.470;2023-03-31T14:18:22;95480.56;;;11.40;100.00
55271;BME280;41132;47.162;9.470;2023-03-31T14:24:35;95493.06;;;10.57;100.00
55271;BME280;41132;47.162;9.470;2023-03-31T14:27:40;95513.50;;;10.23;100.00
55271;BME280;41132;47.162;9.470;2023-03-31T14:32:18;95533.81;;;10.07;100.00
55271;BME280;41132;47.162;9.470;2023-03-31T14:35:11;95553.72;;;9.93;100.00
55271;BME280;41132;47.162;9.470;2023-03-31T14:37:44;95543.25;;;9.93;88.63
55271;BME280;41132;47.162;9.470;2023-03-31T14:40:13;95465.16;;;9.88;85.95
55271;BME280;41132;47.162;9.470;2023-03-31T14:42:41;95462.53;;;9.88;94.58
55271;BME280;41132;47.162;9.470;2023-03-31T14:45:24;95439.50;;;9.98;82.27
55271;BME280;41132;47.162;9.470;2023-03-31T14:47:57;95442.53;;;10.25;74.38
55271;BME280;41132;47.162;9.470;2023-03-31T14:50:33;95420.44;;;10.19;82.28
55271;BME280;41132;47.162;9.470;2023-03-31T14:52:59;95394.09;;;10.36;76.90
55271;BME280;41132;47.162;9.470;2023-03-31T14:55:27;95411.09;;;10.55;78.39
55271;BME280;41132;47.162;9.470;2023-03-31T14:57:56;95361.25;;;10.70;62.26
55271;BME280;41132;47.162;9.470;2023-03-31T15:00:27;95367.09;;;10.72;73.64
55271;BME280;41132;47.162;9.470;2023-03-31T15:02:54;95357.59;;;10.85;66.41
55271;BME280;41132;47.162;9.470;2023-03-31T15:05:36;95332.78;;;10.88;70.00
55271;BME280;41132;47.162;9.470;2023-03-31T15:08:07;95288.78;;;10.90;68.96
55271;BME280;41132;47.162;9.470;2023-03-31T15:10:41;95323.06;;;10.89;63.87
55271;BME280;41132;47.162;9.470;2023-03-31T15:13:14;95332.06;;;10.79;78.17
55271;BME280;41132;47.162;9.470;2023-03-31T15:15:40;95281.97;;;11.17;58.88
55271;BME280;41132;47.162;9.470;2023-03-31T15:18:11;95333.72;;;11.23;63.05
55271;BME280;41132;47.162;9.470;2023-03-31T15:20:39;95264.31;;;11.11;61.37
55271;BME280;41132;47.162;9.470;2023-03-31T15:23:24;95309.81;;;10.97;68.13
55271;BME280;41132;47.162;9.470;2023-03-31T15:25:57;95292.41;;;11.11;61.43
55271;BME280;41132;47.162;9.470;2023-03-31T15:28:25;95274.03;;;11.11;64.89
55271;BME280;41132;47.162;9.470;2023-03-31T15:30:52;95255.38;;;11.05;70.93
55271;BME280;41132;47.162;9.470;2023-03-31T15:33:21;95263.75;;;11.16;62.15
55271;BME280;41132;47.162;9.470;2023-03-31T15:35:48;95237.56;;;11.01;61.86
55271;BME280;41132;47.162;9.470;2023-03-31T15:38:14;95275.56;;;11.26;55.34
55271;BME280;41132;47.162;9.470;2023-03-31T15:40:43;95265.53;;;11.08;62.68
55271;BME280;41132;47.162;9.470;2023-03-31T15:43:17;95267.19;;;11.16;59.69
55271;BME280;41132;47.162;9.470;2023-03-31T15:45:53;95249.81;;;11.15;54.46